sensor_id;sensor_type;location;lat;lon;timestamp;temperature;humidity
2957;DHT22;1488;51.548;7.222;2022-10-31T18:16:50;26.00;70.40
2957;DHT22;1488;51.548;7.222;2022-10-31T18:19:20;26.00;70.60
2957;DHT22;1488;51.548;7.222;2022-10-31T18:21:47;26.00;70.40
2957;DHT22;1488;51.548;7.222;2022-10-31T18:24:13;26.00;70.30
2957;DHT22;1488;51.548;7.222;2022-10-31T18:26:40;26.00;70.20
2957;DHT22;1488;51.548;7.222;2022-10-31T18:29:09;26.10;70.30
2957;DHT22;1488;51.548;7.222;2022-10-31T18:31:36;26.10;70.30
2957;DHT22;1488;51.548;7.222;2022-10-31T18:34:04;26.10;70.40
2957;DHT22;1488;51.548;7.222;2022-10-31T18:36:31;26.10;70.40
2957;DHT22;1488;51.548;7.222;2022-10-31T18:38:57;26.10;70.50
2957;DHT22;1488;51.548;7.222;2022-10-31T18:41:24;26.10;70.50
2957;DHT22;1488;51.548;7.222;2022-10-31T18:43:51;26.10;70.50
2957;DHT22;1488;51.548;7.222;2022-10-31T18:46:20;26.10;70.50
2957;DHT22;1488;51.548;7.222;2022-10-31T18:48:47;26.10;70.50
2957;DHT22;1488;51.548;7.222;2022-10-31T18:51:15;26.10;70.50
2957;DHT22;1488;51.548;7.222;2022-10-31T18:53:48;26.10;70.40
2957;DHT22;1488;51.548;7.222;2022-10-31T18:56:16;26.20;70.50
2957;DHT22;1488;51.548;7.222;2022-10-31T18:58:43;26.30;70.60
2957;DHT22;1488;51.548;7.222;2022-10-31T19:01:11;26.10;70.40
2957;DHT22;1488;51.548;7.222;2022-10-31T19:03:39;26.10;70.40
2957;DHT22;1488;51.548;7.222;2022-10-31T19:06:08;26.10;70.40
2957;DHT22;1488;51.548;7.222;2022-10-31T19:08:38;26.20;70.40
2957;DHT22;1488;51.548;7.222;2022-10-31T19:11:07;26.10;70.30
2957;DHT22;1488;51.548;7.222;2022-10-31T19:13:34;26.10;70.30
2957;DHT22;1488;51.548;7.222;2022-10-31T19:16:06;26.10;70.20
2957;DHT22;1488;51.548;7.222;2022-10-31T19:18:34;26.10;70.20
2957;DHT22;1488;51.548;7.222;2022-10-31T19:21:04;26.10;70.20
2957;DHT22;1488;51.548;7.222;2022-10-31T19:23:31;26.10;70.10
2957;DHT22;1488;51.548;7.222;2022-10-31T19:25:59;26.10;70.10
2957;DHT22;1488;51.548;7.222;2022-10-31T19:28:28;26.10;70.00
2957;DHT22;1488;51.548;7.222;2022-10-31T19:30:56;26.10;70.00
2957;DHT22;1488;51.548;7.222;2022-10-31T19:33:23;26.10;70.00
2957;DHT22;1488;51.548;7.222;2022-10-31T19:35:51;26.10;69.90
2957;DHT22;1488;51.548;7.222;2022-10-31T19:38:17;26.10;69.80
2957;DHT22;1488;51.548;7.222;2022-10-31T19:40:44;26.10;69.80
2957;DHT22;1488;51.548;7.222;2022-10-31T19:43:12;26.10;69.80
2957;DHT22;1488;51.548;7.222;2022-10-31T19:49:01;26.10;69.70
2957;DHT22;1488;51.548;7.222;2022-10-31T19:51:28;26.10;69.90
2957;DHT22;1488;51.548;7.222;2022-10-31T19:53:55;26.00;69.70
2957;DHT22;1488;51.548;7.222;2022-10-31T19:59:45;26.10;69.60
2957;DHT22;1488;51.548;7.222;2022-10-31T20:02:12;26.00;69.70
2957;DHT22;1488;51.548;7.222;2022-10-31T20:04:44;26.10;69.70
2957;DHT22;1488;51.548;7.222;2022-10-31T20:07:11;26.00;69.50
2957;DHT22;1488;51.548;7.222;2022-10-31T20:09:38;26.10;69.60
2957;DHT22;1488;51.548;7.222;2022-10-31T20:12:05;26.00;69.50
2957;DHT22;1488;51.548;7.222;2022-10-31T20:14:32;26.10;69.50
2957;DHT22;1488;51.548;7.222;2022-10-31T20:17:00;26.00;69.40
2957;DHT22;1488;51.548;7.222;2022-10-31T20:19:27;26.10;69.50
2957;DHT22;1488;51.548;7.222;2022-10-31T20:21:54;26.10;69.40
2957;DHT22;1488;51.548;7.222;2022-10-31T20:24:21;26.00;69.30
2957;DHT22;1488;51.548;7.222;2022-10-31T20:26:47;26.10;69.40
2957;DHT22;1488;51.548;7.222;2022-10-31T20:29:14;26.10;69.40
2957;DHT22;1488;51.548;7.222;2022-10-31T20:31:42;26.10;69.40
2957;DHT22;1488;51.548;7.222;2022-10-31T20:34:10;26.10;69.30
2957;DHT22;1488;51.548;7.222;2022-10-31T20:36:37;26.10;69.30
2957;DHT22;1488;51.548;7.222;2022-10-31T20:39:04;26.10;69.20
2957;DHT22;1488;51.548;7.222;2022-10-31T20:41:30;26.10;69.30
2957;DHT22;1488;51.548;7.222;2022-10-31T20:43:57;26.00;69.10
2957;DHT22;1488;51.548;7.222;2022-10-31T20:46:25;26.00;69.10
2957;DHT22;1488;51.548;7.222;2022-10-31T20:48:53;26.00;69.00
2957;DHT22;1488;51.548;7.222;2022-10-31T20:51:23;26.10;69.10
2957;DHT22;1488;51.548;7.222;2022-10-31T20:53:51;26.00;69.00
2957;DHT22;1488;51.548;7.222;2022-10-31T20:56:19;26.00;68.90
2957;DHT22;1488;51.548;7.222;2022-10-31T20:58:47;26.00;69.00
2957;DHT22;1488;51.548;7.222;2022-10-31T21:01:15;26.00;68.90
2957;DHT22;1488;51.548;7.222;2022-10-31T21:03:43;26.00;68.90
2957;DHT22;1488;51.548;7.222;2022-10-31T21:06:10;26.00;68.90
2957;DHT22;1488;51.548;7.222;2022-10-31T21:08:39;26.00;68.80
2957;DHT22;1488;51.548;7.222;2022-10-31T21:11:09;26.00;68.80
2957;DHT22;1488;51.548;7.222;2022-10-31T21:13:37;26.00;68.70
2957;DHT22;1488;51.548;7.222;2022-10-31T21:16:06;26.00;68.70
2957;DHT22;1488;51.548;7.222;2022-10-31T21:18:34;26.00;68.70
2957;DHT22;1488;51.548;7.222;2022-10-31T21:21:06;26.00;68.70
2957;DHT22;1488;51.548;7.222;2022-10-31T21:23:33;26.00;68.60
2957;DHT22;1488;51.548;7.222;2022-10-31T21:26:05;26.00;68.60
2957;DHT22;1488;51.548;7.222;2022-10-31T21:28:32;26.00;68.60
2957;DHT22;1488;51.548;7.222;2022-10-31T21:30:59;26.00;68.70
2957;DHT22;1488;51.548;7.222;2022-10-31T21:33:25;26.00;68.70
2957;DHT22;1488;51.548;7.222;2022-10-31T21:35:52;26.00;68.60
2957;DHT22;1488;51.548;7.222;2022-10-31T21:38:19;26.00;69.50
2957;DHT22;1488;51.548;7.222;2022-10-31T21:40:46;26.00;68.60
2957;DHT22;1488;51.548;7.222;2022-10-31T21:43:14;26.00;68.50
2957;DHT22;1488;51.548;7.222;2022-10-31T21:45:41;26.00;68.60
2957;DHT22;1488;51.548;7.222;2022-10-31T21:48:07;26.00;68.00
2957;DHT22;1488;51.548;7.222;2022-10-31T21:50:34;26.00;68.40
2957;DHT22;1488;51.548;7.222;2022-10-31T21:53:01;26.00;68.30
2957;DHT22;1488;51.548;7.222;2022-10-31T21:55:48;26.00;68.30
2957;DHT22;1488;51.548;7.222;2022-10-31T21:58:15;26.00;68.50
2957;DHT22;1488;51.548;7.222;2022-10-31T22:00:41;26.00;68.50
2957;DHT22;1488;51.548;7.222;2022-10-31T22:03:08;26.20;68.80
2957;DHT22;1488;51.548;7.222;2022-10-31T22:05:35;26.00;68.50
2957;DHT22;1488;51.548;7.222;2022-10-31T22:08:02;26.00;68.50
2957;DHT22;1488;51.548;7.222;2022-10-31T22:10:29;26.00;68.70
2957;DHT22;1488;51.548;7.222;2022-10-31T22:12:56;26.00;68.50
2957;DHT22;1488;51.548;7.222;2022-10-31T22:15:24;26.00;68.60
2957;DHT22;1488;51.548;7.222;2022-10-31T22:17:51;26.00;68.50
2957;DHT22;1488;51.548;7.222;2022-10-31T22:20:17;26.00;68.70
2957;DHT22;1488;51.548;7.222;2022-10-31T22:22:45;26.00;68.70
2957;DHT22;1488;51.548;7.222;2022-10-31T22:25:13;26.00;68.60
2957;DHT22;1488;51.548;7.222;2022-10-31T22:27:39;26.00;68.50
2957;DHT22;1488;51.548;7.222;2022-10-31T22:30:08;26.00;68.40
2957;DHT22;1488;51.548;7.222;2022-10-31T22:32:36;26.00;68.30
2957;DHT22;1488;51.548;7.222;2022-10-31T22:35:03;26.00;68.40
2957;DHT22;1488;51.548;7.222;2022-10-31T22:37:30;26.00;68.40
2957;DHT22;1488;51.548;7.222;2022-10-31T22:39:57;26.00;68.60
2957;DHT22;1488;51.548;7.222;2022-10-31T22:42:24;26.00;68.40
2957;DHT22;1488;51.548;7.222;2022-10-31T22:44:51;26.00;68.10
2957;DHT22;1488;51.548;7.222;2022-10-31T22:47:17;26.00;67.80
2957;DHT22;1488;51.548;7.222;2022-10-31T22:49:45;26.00;68.10
2957;DHT22;1488;51.548;7.222;2022-10-31T22:52:13;26.00;67.90
2957;DHT22;1488;51.548;7.222;2022-10-31T22:54:40;26.00;68.00
2957;DHT22;1488;51.548;7.222;2022-10-31T23:00:29;26.00;67.80
2957;DHT22;1488;51.548;7.222;2022-10-31T23:02:56;25.90;67.90
2957;DHT22;1488;51.548;7.222;2022-10-31T23:05:24;25.90;67.90
2957;DHT22;1488;51.548;7.222;2022-10-31T23:07:51;26.00;68.00
2957;DHT22;1488;51.548;7.222;2022-10-31T23:10:18;26.10;68.10
2957;DHT22;1488;51.548;7.222;2022-10-31T23:12:45;26.00;67.90
2957;DHT22;1488;51.548;7.222;2022-10-31T23:15:29;26.00;67.90
2957;DHT22;1488;51.548;7.222;2022-10-31T23:17:56;26.00;67.80
2957;DHT22;1488;51.548;7.222;2022-10-31T23:20:24;26.00;67.80
2957;DHT22;1488;51.548;7.222;2022-10-31T23:22:51;26.00;67.80
2957;DHT22;1488;51.548;7.222;2022-10-31T23:25:17;26.00;67.80
2957;DHT22;1488;51.548;7.222;2022-10-31T23:28:02;26.00;67.90
2957;DHT22;1488;51.548;7.222;2022-10-31T23:30:29;26.00;67.90
2957;DHT22;1488;51.548;7.222;2022-10-31T23:32:55;26.00;67.80
2957;DHT22;1488;51.548;7.222;2022-10-31T23:35:23;26.00;67.80
2957;DHT22;1488;51.548;7.222;2022-10-31T23:37:50;26.00;67.70
2957;DHT22;1488;51.548;7.222;2022-10-31T23:40:17;26.00;67.80
2957;DHT22;1488;51.548;7.222;2022-10-31T23:42:46;25.90;67.80
2957;DHT22;1488;51.548;7.222;2022-10-31T23:45:13;26.00;67.70
2957;DHT22;1488;51.548;7.222;2022-10-31T23:47:40;26.00;67.70
2957;DHT22;1488;51.548;7.222;2022-10-31T23:50:07;26.00;67.80
2957;DHT22;1488;51.548;7.222;2022-10-31T23:52:36;26.00;67.70
2957;DHT22;1488;51.548;7.222;2022-10-31T23:55:03;26.00;67.70
2957;DHT22;1488;51.548;7.222;2022-10-31T23:57:30;25.90;67.70
2957;DHT22;1488;51.548;7.222;2022-10-31T23:59:56;26.00;67.70
